Time;durP1;ratioP1;P1;durP2;ratioP2;P2;SDS_P1;SDS_P2;PMS_P1;PMS_P2;Temp;Humidity;BMP_temperature;BMP_pressure;BME280_temperature;BME280_humidity;BME280_pressure;Samples;Min_cycle;Max_cycle;Signal;HPM_P1;HPM_P2
2021/08/14 00:01:20;;;;;;;8.45;5.70;;;;;;;;;;5113409;28;20100;-77
2021/08/14 00:03:46;;;;;;;12.18;6.15;;;;;;;;;;5113247;28;20036;-76
2021/08/14 00:06:15;;;;;;;10.48;6.07;;;;;;;;;;5117056;28;20421;-77
2021/08/14 00:08:42;;;;;;;6.38;5.60;;;;;;;;;;5117416;28;20040;-76
2021/08/14 00:11:08;;;;;;;8.80;5.90;;;;;;;;;;5117600;28;20036;-76
2021/08/14 00:13:34;;;;;;;7.55;5.40;;;;;;;;;;5117425;28;20407;-78
2021/08/14 00:16:01;;;;;;;9.02;5.90;;;;;;;;;;5117279;28;20027;-76
2021/08/14 00:18:27;;;;;;;8.95;5.60;;;;;;;;;;5117194;28;20050;-76
2021/08/14 00:20:53;;;;;;;15.65;6.70;;;;;;;;;;5117375;28;20027;-75
2021/08/14 00:23:19;;;;;;;10.38;6.03;;;;;;;;;;5117289;28;20036;-77
2021/08/14 00:25:45;;;;;;;7.88;6.00;;;;;;;;;;5117106;28;20043;-77
2021/08/14 00:28:11;;;;;;;9.35;5.93;;;;;;;;;;5117034;28;20495;-76
2021/08/14 00:30:37;;;;;;;10.77;5.90;;;;;;;;;;5116844;28;20110;-77
2021/08/14 00:33:03;;;;;;;7.47;5.97;;;;;;;;;;5116781;28;20039;-77
2021/08/14 00:35:29;;;;;;;11.05;6.25;;;;;;;;;;5117248;28;20032;-77
2021/08/14 00:37:56;;;;;;;10.88;6.30;;;;;;;;;;5116962;28;20110;-77
2021/08/14 00:40:22;;;;;;;7.75;5.57;;;;;;;;;;5116795;28;20036;-77
2021/08/14 00:42:48;;;;;;;8.35;5.80;;;;;;;;;;5116816;28;20096;-77
2021/08/14 00:45:14;;;;;;;9.00;6.00;;;;;;;;;;5116728;28;20040;-77
2021/08/14 00:47:41;;;;;;;9.15;5.70;;;;;;;;;;5116852;28;20043;-77
2021/08/14 00:50:08;;;;;;;7.15;6.07;;;;;;;;;;5116737;28;20043;-77
2021/08/14 00:52:34;;;;;;;8.05;6.13;;;;;;;;;;5116377;28;20035;-76
2021/08/14 00:55:00;;;;;;;12.73;6.40;;;;;;;;;;5116614;28;20054;-77
2021/08/14 00:57:26;;;;;;;12.20;6.07;;;;;;;;;;5116490;28;20034;-77
2021/08/14 00:59:52;;;;;;;8.52;5.75;;;;;;;;;;5115848;28;20080;-78
2021/08/14 01:02:19;;;;;;;8.95;6.18;;;;;;;;;;5116812;28;20388;-77
2021/08/14 01:04:49;;;;;;;7.22;5.88;;;;;;;;;;5116485;28;20028;-77
2021/08/14 01:07:16;;;;;;;7.82;5.50;;;;;;;;;;5116168;28;20364;-78
2021/08/14 01:09:42;;;;;;;6.85;5.30;;;;;;;;;;5116123;28;20081;-77
2021/08/14 01:12:08;;;;;;;8.15;5.72;;;;;;;;;;5116177;28;20545;-76
2021/08/14 01:14:35;;;;;;;7.85;6.00;;;;;;;;;;5115661;28;20043;-77
2021/08/14 01:17:01;;;;;;;8.90;5.65;;;;;;;;;;5115073;28;20038;-78
2021/08/14 01:19:28;;;;;;;9.32;5.80;;;;;;;;;;5116182;28;20026;-76
2021/08/14 01:21:54;;;;;;;11.15;5.78;;;;;;;;;;5115954;28;20454;-77
2021/08/14 01:24:21;;;;;;;11.60;5.90;;;;;;;;;;5115999;28;20039;-76
2021/08/14 01:26:47;;;;;;;10.27;5.60;;;;;;;;;;5115936;28;20480;-76
2021/08/14 01:29:13;;;;;;;8.90;5.78;;;;;;;;;;5115628;28;20514;-75
2021/08/14 01:31:39;;;;;;;9.15;6.25;;;;;;;;;;5115821;28;20028;-77
2021/08/14 01:34:05;;;;;;;9.10;5.38;;;;;;;;;;5115720;28;20425;-77
2021/08/14 01:36:31;;;;;;;11.25;6.05;;;;;;;;;;5115260;28;20039;-76
2021/08/14 01:38:58;;;;;;;8.23;5.38;;;;;;;;;;5115470;28;20392;-77
2021/08/14 01:41:25;;;;;;;8.18;6.00;;;;;;;;;;5115535;28;20036;-78
2021/08/14 01:43:51;;;;;;;11.40;6.13;;;;;;;;;;5115203;28;20047;-76
2021/08/14 01:46:17;;;;;;;7.90;5.70;;;;;;;;;;5115516;28;20031;-77
2021/08/14 01:48:43;;;;;;;11.75;5.97;;;;;;;;;;5115167;28;20515;-77
2021/08/14 01:51:09;;;;;;;9.05;5.88;;;;;;;;;;5115158;28;20028;-77
2021/08/14 01:53:35;;;;;;;10.93;5.85;;;;;;;;;;5115364;28;20039;-74
2021/08/14 01:56:01;;;;;;;8.82;6.10;;;;;;;;;;5096927;28;20558;-77
2021/08/14 01:58:27;;;;;;;21.85;6.55;;;;;;;;;;5115307;28;20075;-76
2021/08/14 02:00:53;;;;;;;8.20;6.30;;;;;;;;;;5115315;28;20035;-77
2021/08/14 02:03:19;;;;;;;11.98;6.50;;;;;;;;;;5115154;28;20028;-76
2021/08/14 02:05:45;;;;;;;11.23;5.70;;;;;;;;;;5115206;28;20115;-78
2021/08/14 02:08:11;;;;;;;10.00;6.22;;;;;;;;;;5115113;28;20035;-78
2021/08/14 02:10:37;;;;;;;10.43;6.13;;;;;;;;;;5114840;28;20035;-78
2021/08/14 02:13:03;;;;;;;7.32;6.00;;;;;;;;;;5114794;28;20024;-78
2021/08/14 02:15:29;;;;;;;12.10;5.72;;;;;;;;;;5115045;28;20113;-77
2021/08/14 02:17:55;;;;;;;9.00;6.20;;;;;;;;;;5114934;28;20035;-78
2021/08/14 02:20:21;;;;;;;7.72;5.93;;;;;;;;;;5115003;28;20486;-77
2021/08/14 02:22:47;;;;;;;9.18;6.55;;;;;;;;;;5114952;28;20028;-77
2021/08/14 02:25:13;;;;;;;9.13;5.88;;;;;;;;;;5114420;28;20040;-76
2021/08/14 02:27:39;;;;;;;8.35;6.25;;;;;;;;;;5114398;28;20036;-73
2021/08/14 02:30:07;;;;;;;9.93;6.60;;;;;;;;;;5114490;28;20032;-76
2021/08/14 02:32:33;;;;;;;11.13;6.82;;;;;;;;;;5114556;28;20107;-77
2021/08/14 02:34:59;;;;;;;9.52;6.57;;;;;;;;;;5114528;28;20043;-76
2021/08/14 02:37:25;;;;;;;13.95;6.35;;;;;;;;;;5114585;28;20039;-74
2021/08/14 02:39:51;;;;;;;9.98;6.47;;;;;;;;;;5114313;28;20054;-77
2021/08/14 02:42:17;;;;;;;9.93;6.68;;;;;;;;;;5114548;28;20062;-75
2021/08/14 02:44:43;;;;;;;9.55;6.03;;;;;;;;;;5114343;28;20483;-74
2021/08/14 02:47:09;;;;;;;13.75;6.45;;;;;;;;;;5114266;28;20024;-76
2021/08/14 02:49:35;;;;;;;18.63;6.47;;;;;;;;;;5114381;28;20153;-77
2021/08/14 02:52:01;;;;;;;15.18;6.35;;;;;;;;;;5113931;28;20038;-76
2021/08/14 02:54:27;;;;;;;11.52;6.80;;;;;;;;;;5114531;28;20044;-76
2021/08/14 02:56:53;;;;;;;10.13;6.38;;;;;;;;;;5114298;28;20052;-77
2021/08/14 02:59:19;;;;;;;12.15;5.97;;;;;;;;;;5114240;28;20059;-77
2021/08/14 03:01:45;;;;;;;12.35;6.22;;;;;;;;;;5114154;28;20028;-78
2021/08/14 03:04:11;;;;;;;10.73;6.47;;;;;;;;;;5114217;28;20042;-78
2021/08/14 03:06:37;;;;;;;8.43;6.25;;;;;;;;;;5114138;28;20499;-77
2021/08/14 03:09:05;;;;;;;11.13;7.00;;;;;;;;;;5114244;28;20400;-77
2021/08/14 03:11:34;;;;;;;13.57;7.47;;;;;;;;;;5114203;28;20035;-77
2021/08/14 03:14:00;;;;;;;12.73;7.00;;;;;;;;;;5113941;28;20047;-76
2021/08/14 03:16:26;;;;;;;13.77;6.80;;;;;;;;;;5113965;28;20387;-76
2021/08/14 03:18:52;;;;;;;8.63;6.47;;;;;;;;;;5113938;28;20114;-75
2021/08/14 03:21:18;;;;;;;10.02;6.30;;;;;;;;;;5113855;28;20105;-75
2021/08/14 03:23:44;;;;;;;9.32;6.88;;;;;;;;;;5113599;28;20035;-77
2021/08/14 03:26:10;;;;;;;10.93;6.68;;;;;;;;;;5113764;28;20035;-77
2021/08/14 03:28:36;;;;;;;11.45;6.90;;;;;;;;;;5113595;28;20078;-77
2021/08/14 03:31:02;;;;;;;10.43;5.97;;;;;;;;;;5113834;28;20043;-78
2021/08/14 03:33:28;;;;;;;8.32;6.28;;;;;;;;;;5113340;28;20571;-78
2021/08/14 03:35:54;;;;;;;7.55;6.25;;;;;;;;;;5095246;28;20411;-78
2021/08/14 03:38:20;;;;;;;8.60;6.90;;;;;;;;;;5113637;28;20114;-78
2021/08/14 03:40:46;;;;;;;11.57;6.63;;;;;;;;;;5113140;28;20040;-77
2021/08/14 03:43:12;;;;;;;10.13;6.28;;;;;;;;;;5113684;28;20031;-76
2021/08/14 03:45:38;;;;;;;11.02;6.35;;;;;;;;;;5113540;28;20035;-77
2021/08/14 03:48:04;;;;;;;11.50;6.55;;;;;;;;;;5113522;28;20034;-77
2021/08/14 03:50:30;;;;;;;8.13;6.07;;;;;;;;;;5113527;28;20093;-73
2021/08/14 03:52:56;;;;;;;10.80;6.97;;;;;;;;;;5113529;28;20027;-78
2021/08/14 03:55:22;;;;;;;11.13;6.60;;;;;;;;;;5113403;28;20055;-76
2021/08/14 03:57:48;;;;;;;11.05;6.85;;;;;;;;;;5113407;28;20035;-78
2021/08/14 04:00:14;;;;;;;8.40;6.70;;;;;;;;;;5113651;28;20035;-77
2021/08/14 04:02:41;;;;;;;12.23;6.88;;;;;;;;;;5113238;28;20055;-77
2021/08/14 04:05:07;;;;;;;13.30;6.75;;;;;;;;;;5113329;28;20040;-78
2021/08/14 04:07:33;;;;;;;8.27;6.68;;;;;;;;;;5113268;28;20484;-77
2021/08/14 04:09:59;;;;;;;12.05;6.68;;;;;;;;;;5113241;28;20069;-77
2021/08/14 04:12:25;;;;;;;7.60;6.35;;;;;;;;;;5094399;28;20085;-77
2021/08/14 04:14:51;;;;;;;8.55;7.15;;;;;;;;;;5113246;28;20047;-78
2021/08/14 04:17:17;;;;;;;9.30;6.40;;;;;;;;;;5113273;28;20066;-77
2021/08/14 04:19:43;;;;;;;10.75;6.20;;;;;;;;;;5113610;28;20028;-77
2021/08/14 04:22:09;;;;;;;12.07;6.22;;;;;;;;;;5113065;28;20115;-76
2021/08/14 04:24:35;;;;;;;10.23;6.55;;;;;;;;;;5113369;28;20031;-77
2021/08/14 04:27:01;;;;;;;11.65;6.97;;;;;;;;;;5094968;28;20453;-77
2021/08/14 04:29:28;;;;;;;13.20;6.65;;;;;;;;;;5113295;28;20063;-72
2021/08/14 04:31:54;;;;;;;15.57;6.53;;;;;;;;;;5113510;28;20119;-77
2021/08/14 04:34:20;;;;;;;8.50;6.68;;;;;;;;;;5112655;28;20449;-74
2021/08/14 04:36:46;;;;;;;9.88;6.00;;;;;;;;;;5113012;28;20035;-76
2021/08/14 04:39:13;;;;;;;10.55;5.95;;;;;;;;;;5113073;28;20336;-77
2021/08/14 04:41:40;;;;;;;9.73;6.35;;;;;;;;;;5113010;28;20043;-78
2021/08/14 04:44:06;;;;;;;9.90;5.95;;;;;;;;;;5113082;28;20032;-78
2021/08/14 04:46:32;;;;;;;8.63;5.60;;;;;;;;;;5113012;28;20103;-77
2021/08/14 04:48:58;;;;;;;9.25;6.53;;;;;;;;;;5113035;28;20067;-72
2021/08/14 04:51:24;;;;;;;10.38;6.10;;;;;;;;;;5113625;28;20067;-77
2021/08/14 04:53:50;;;;;;;9.25;6.20;;;;;;;;;;5116520;28;20048;-77
2021/08/14 04:56:16;;;;;;;8.80;6.65;;;;;;;;;;5116676;28;20424;-75
2021/08/14 04:58:42;;;;;;;12.57;6.80;;;;;;;;;;5116653;28;20399;-77
2021/08/14 05:01:08;;;;;;;12.95;6.82;;;;;;;;;;5116532;28;20031;-76
2021/08/14 05:03:34;;;;;;;9.75;6.88;;;;;;;;;;5116244;28;20027;-78
2021/08/14 05:06:00;;;;;;;7.35;6.07;;;;;;;;;;5116333;28;20452;-77
2021/08/14 05:08:26;;;;;;;9.00;6.15;;;;;;;;;;5115996;28;20600;-72
2021/08/14 05:10:52;;;;;;;12.07;6.13;;;;;;;;;;5116244;28;20110;-72
2021/08/14 05:13:18;;;;;;;9.88;6.70;;;;;;;;;;5116672;28;20388;-72
2021/08/14 05:15:44;;;;;;;13.73;6.75;;;;;;;;;;5097664;28;20031;-72
2021/08/14 05:18:10;;;;;;;10.63;6.55;;;;;;;;;;5115837;28;20488;-72
2021/08/14 05:20:36;;;;;;;9.98;6.47;;;;;;;;;;5116019;28;20040;-72
2021/08/14 05:23:02;;;;;;;14.45;6.40;;;;;;;;;;5116030;28;20028;-73
2021/08/14 05:25:28;;;;;;;10.13;6.07;;;;;;;;;;5116225;28;20031;-72
2021/08/14 05:27:54;;;;;;;6.82;6.13;;;;;;;;;;5115956;28;20475;-72
2021/08/14 05:30:20;;;;;;;15.48;6.53;;;;;;;;;;5115687;28;20040;-72
2021/08/14 05:32:46;;;;;;;10.85;5.82;;;;;;;;;;5115651;28;20051;-72
2021/08/14 05:35:12;;;;;;;13.50;6.15;;;;;;;;;;5115816;28;20039;-72
2021/08/14 05:37:38;;;;;;;10.40;5.80;;;;;;;;;;5116001;28;20032;-70
2021/08/14 05:40:05;;;;;;;10.77;6.20;;;;;;;;;;5115946;28;20077;-73
2021/08/14 05:42:31;;;;;;;11.77;6.07;;;;;;;;;;5115757;28;20116;-76
2021/08/14 05:44:57;;;;;;;8.10;5.70;;;;;;;;;;5116009;28;20460;-74
2021/08/14 05:47:24;;;;;;;8.45;6.32;;;;;;;;;;5115923;28;20383;-76
2021/08/14 05:49:50;;;;;;;12.00;6.07;;;;;;;;;;5116104;28;20031;-75
2021/08/14 05:52:16;;;;;;;7.72;5.95;;;;;;;;;;5115564;28;20028;-79
2021/08/14 05:54:42;;;;;;;8.80;6.13;;;;;;;;;;5115584;28;20039;-84
2021/08/14 05:57:08;;;;;;;11.60;5.82;;;;;;;;;;5115540;28;20472;-81
2021/08/14 05:59:34;;;;;;;9.18;6.10;;;;;;;;;;5115374;28;20592;-80
2021/08/14 06:02:00;;;;;;;13.52;5.72;;;;;;;;;;5114565;28;20063;-79
2021/08/14 06:04:26;;;;;;;10.88;6.00;;;;;;;;;;5115192;28;20097;-80
2021/08/14 06:06:52;;;;;;;8.65;5.80;;;;;;;;;;5115141;28;20036;-80
2021/08/14 06:09:18;;;;;;;8.70;5.70;;;;;;;;;;5115215;28;20032;-80
2021/08/14 06:11:45;;;;;;;6.43;5.53;;;;;;;;;;5115253;28;20478;-82
2021/08/14 06:14:11;;;;;;;7.90;5.63;;;;;;;;;;5097040;28;20051;-79
2021/08/14 06:16:38;;;;;;;9.52;6.13;;;;;;;;;;5114799;28;20051;-81
2021/08/14 06:19:04;;;;;;;13.20;6.10;;;;;;;;;;5115007;28;20493;-81
2021/08/14 06:21:30;;;;;;;11.50;5.90;;;;;;;;;;5115106;28;20110;-82
2021/08/14 06:23:56;;;;;;;7.03;6.05;;;;;;;;;;5115018;28;20107;-67
2021/08/14 06:26:22;;;;;;;7.93;6.03;;;;;;;;;;5115001;28;20032;-76
2021/08/14 06:28:48;;;;;;;10.55;5.50;;;;;;;;;;5114885;28;20039;-82
2021/08/14 06:31:16;;;;;;;9.32;5.40;;;;;;;;;;5114812;28;20038;-75
2021/08/14 06:33:42;;;;;;;6.65;5.03;;;;;;;;;;5114574;28;20059;-69
2021/08/14 06:36:08;;;;;;;12.55;5.80;;;;;;;;;;5114811;28;20075;-70
2021/08/14 06:38:36;;;;;;;9.35;5.60;;;;;;;;;;5114717;28;20027;-70
2021/08/14 06:41:02;;;;;;;6.93;5.20;;;;;;;;;;5114779;28;20057;-68
2021/08/14 06:43:28;;;;;;;6.55;5.18;;;;;;;;;;5114903;28;20040;-70
2021/08/14 06:45:54;;;;;;;11.75;5.57;;;;;;;;;;5114757;28;20369;-71
2021/08/14 06:48:20;;;;;;;6.80;4.90;;;;;;;;;;5114526;28;20043;-70
2021/08/14 06:50:46;;;;;;;8.27;5.15;;;;;;;;;;5114565;28;20055;-70
2021/08/14 06:53:12;;;;;;;7.43;5.25;;;;;;;;;;5114504;28;20476;-70
2021/08/14 06:55:38;;;;;;;8.20;5.32;;;;;;;;;;5114511;28;20042;-69
2021/08/14 06:58:04;;;;;;;6.57;5.13;;;;;;;;;;5114509;28;20031;-69
2021/08/14 07:00:30;;;;;;;9.80;5.38;;;;;;;;;;5114552;28;20056;-70
2021/08/14 07:02:56;;;;;;;9.20;6.55;;;;;;;;;;5114267;28;20380;-70
2021/08/14 07:05:22;;;;;;;9.82;5.68;;;;;;;;;;5114300;28;20031;-70
2021/08/14 07:07:48;;;;;;;10.38;5.30;;;;;;;;;;5114312;28;20115;-70
2021/08/14 07:10:14;;;;;;;7.50;5.15;;;;;;;;;;5114341;28;20035;-70
2021/08/14 07:12:43;;;;;;;10.40;5.25;;;;;;;;;;5113991;28;20036;-70
2021/08/14 07:15:09;;;;;;;6.72;5.53;;;;;;;;;;5113151;28;20054;-69
2021/08/14 07:17:35;;;;;;;10.98;5.20;;;;;;;;;;5114242;28;20532;-70
2021/08/14 07:20:01;;;;;;;9.80;5.15;;;;;;;;;;5114029;28;20058;-70
2021/08/14 07:22:27;;;;;;;10.13;5.57;;;;;;;;;;5114073;28;20028;-70
2021/08/14 07:24:53;;;;;;;9.45;5.43;;;;;;;;;;5113994;28;20039;-70
2021/08/14 07:27:19;;;;;;;7.70;5.32;;;;;;;;;;5113812;28;20106;-69
2021/08/14 07:29:45;;;;;;;8.45;5.53;;;;;;;;;;5113948;28;20028;-69
2021/08/14 07:32:13;;;;;;;7.82;5.75;;;;;;;;;;5113556;28;20082;-70
2021/08/14 07:34:40;;;;;;;11.55;5.30;;;;;;;;;;5113613;28;20043;-70
2021/08/14 07:37:07;;;;;;;8.10;5.47;;;;;;;;;;5113812;28;20495;-70
2021/08/14 07:39:33;;;;;;;7.22;5.40;;;;;;;;;;5114286;28;20042;-70
2021/08/14 07:41:59;;;;;;;8.60;5.35;;;;;;;;;;5113668;28;20028;-69
2021/08/14 07:44:25;;;;;;;10.40;5.10;;;;;;;;;;5113846;28;20084;-70
2021/08/14 07:46:51;;;;;;;8.20;5.10;;;;;;;;;;5113627;28;20023;-69
2021/08/14 07:49:18;;;;;;;6.88;4.90;;;;;;;;;;5095445;28;20040;-69
2021/08/14 07:51:44;;;;;;;7.18;5.22;;;;;;;;;;5113769;28;20073;-70
2021/08/14 07:54:10;;;;;;;9.00;6.15;;;;;;;;;;5113557;28;20051;-70
2021/08/14 07:56:36;;;;;;;11.45;5.70;;;;;;;;;;5113425;28;20384;-69
2021/08/14 07:59:02;;;;;;;8.52;5.47;;;;;;;;;;5113459;28;20077;-69
2021/08/14 08:01:28;;;;;;;9.77;5.68;;;;;;;;;;5114015;28;20085;-71
2021/08/14 08:03:55;;;;;;;6.95;5.00;;;;;;;;;;5095385;28;20055;-71
2021/08/14 08:06:21;;;;;;;9.73;4.97;;;;;;;;;;5114154;28;20032;-71
2021/08/14 08:08:47;;;;;;;10.20;5.70;;;;;;;;;;5113629;28;20039;-70
2021/08/14 08:11:13;;;;;;;7.55;5.10;;;;;;;;;;5113234;28;20471;-70
2021/08/14 08:13:39;;;;;;;11.38;5.40;;;;;;;;;;5113429;28;20038;-70
2021/08/14 08:16:05;;;;;;;8.18;5.22;;;;;;;;;;5113524;28;20093;-71
2021/08/14 08:18:31;;;;;;;11.20;4.78;;;;;;;;;;5113657;28;20376;-70
2021/08/14 08:20:57;;;;;;;7.47;5.68;;;;;;;;;;5113567;28;20104;-70
2021/08/14 08:23:23;;;;;;;10.65;5.28;;;;;;;;;;5113401;28;20028;-69
2021/08/14 08:25:49;;;;;;;10.35;5.10;;;;;;;;;;5114739;28;20043;-71
2021/08/14 08:28:20;;;;;;;8.48;5.43;;;;;;;;;;5117386;28;20028;-70
2021/08/14 08:30:46;;;;;;;8.85;5.28;;;;;;;;;;5117364;28;20031;-69
2021/08/14 08:33:12;;;;;;;11.02;6.05;;;;;;;;;;5116879;28;20070;-70
2021/08/14 08:35:38;;;;;;;7.97;5.32;;;;;;;;;;5117117;28;20047;-70
2021/08/14 08:38:04;;;;;;;9.90;5.00;;;;;;;;;;5117022;28;20082;-70
2021/08/14 08:40:32;;;;;;;7.07;5.15;;;;;;;;;;5116943;28;20476;-70
2021/08/14 08:42:58;;;;;;;11.93;5.22;;;;;;;;;;5117176;28;20034;-70
2021/08/14 08:45:24;;;;;;;5.70;5.10;;;;;;;;;;5116912;28;20028;-70
2021/08/14 08:47:51;;;;;;;9.55;5.18;;;;;;;;;;5116857;28;20090;-70
2021/08/14 08:50:17;;;;;;;7.93;5.20;;;;;;;;;;5116931;28;20032;-70
2021/08/14 08:52:44;;;;;;;7.57;4.82;;;;;;;;;;5116754;28;20437;-70
2021/08/14 08:55:14;;;;;;;8.45;5.18;;;;;;;;;;5116589;28;20039;-69
2021/08/14 08:57:40;;;;;;;10.75;5.50;;;;;;;;;;5117084;28;20032;-70
2021/08/14 09:00:06;;;;;;;6.38;4.72;;;;;;;;;;5116739;28;20106;-70
2021/08/14 09:02:34;;;;;;;10.55;5.28;;;;;;;;;;5116697;28;20036;-70
2021/08/14 09:05:20;;;;;;;10.82;5.25;;;;;;;;;;5116306;28;20422;-70
2021/08/14 09:07:50;;;;;;;7.75;5.00;;;;;;;;;;5116597;28;20032;-70
2021/08/14 09:10:16;;;;;;;15.13;5.60;;;;;;;;;;5116533;28;20034;-70
2021/08/14 09:12:43;;;;;;;8.30;4.80;;;;;;;;;;5116706;28;20032;-70
2021/08/14 09:15:19;;;;;;;11.88;5.22;;;;;;;;;;5116443;28;20373;-70
2021/08/14 09:17:45;;;;;;;12.90;5.10;;;;;;;;;;5116124;28;20092;-70
2021/08/14 09:20:19;;;;;;;6.78;4.55;;;;;;;;;;5116512;28;20038;-70
2021/08/14 09:23:05;;;;;;;7.50;5.07;;;;;;;;;;5117002;28;20409;-71
2021/08/14 09:25:45;;;;;;;7.18;5.05;;;;;;;;;;5116036;28;20039;-70
2021/08/14 09:28:12;;;;;;;10.15;5.00;;;;;;;;;;5116339;28;20384;-70
2021/08/14 09:30:47;;;;;;;6.53;5.00;;;;;;;;;;5116012;28;20020;-70
2021/08/14 09:33:15;;;;;;;7.28;5.30;;;;;;;;;;5115667;28;20058;-70
2021/08/14 09:35:41;;;;;;;9.18;5.57;;;;;;;;;;5115874;28;20044;-70
2021/08/14 09:38:09;;;;;;;10.50;6.30;;;;;;;;;;5115147;28;20050;-70
2021/08/14 09:40:39;;;;;;;7.85;5.53;;;;;;;;;;5116070;28;20039;-69
2021/08/14 09:43:05;;;;;;;8.23;4.88;;;;;;;;;;5116021;28;20476;-70
2021/08/14 09:45:32;;;;;;;10.05;5.03;;;;;;;;;;5115680;28;20035;-70
2021/08/14 09:47:58;;;;;;;13.07;4.82;;;;;;;;;;5115944;28;20085;-69
2021/08/14 09:50:34;;;;;;;9.10;5.10;;;;;;;;;;5115723;28;20106;-70
2021/08/14 09:53:13;;;;;;;8.07;5.28;;;;;;;;;;5115734;28;20054;-70
2021/08/14 09:55:39;;;;;;;9.38;5.13;;;;;;;;;;5115792;28;20040;-70
2021/08/14 09:58:05;;;;;;;9.60;4.88;;;;;;;;;;5115599;28;20032;-70
2021/08/14 10:00:31;;;;;;;11.55;5.38;;;;;;;;;;5115640;28;20032;-69
2021/08/14 10:02:58;;;;;;;8.75;4.88;;;;;;;;;;5115282;28;20075;-70
2021/08/14 10:05:25;;;;;;;12.65;5.35;;;;;;;;;;5115741;28;20036;-70
2021/08/14 10:07:51;;;;;;;7.68;4.32;;;;;;;;;;5115554;28;20035;-70
2021/08/14 10:10:17;;;;;;;13.90;4.85;;;;;;;;;;5115474;28;20036;-70
2021/08/14 10:12:44;;;;;;;8.65;4.57;;;;;;;;;;5115261;28;20032;-70
2021/08/14 10:15:10;;;;;;;7.97;4.28;;;;;;;;;;5115181;28;20047;-70
2021/08/14 10:17:36;;;;;;;12.07;4.75;;;;;;;;;;5115266;28;20081;-70
2021/08/14 10:20:02;;;;;;;8.43;5.32;;;;;;;;;;5115176;28;20047;-71
2021/08/14 10:22:29;;;;;;;9.30;4.85;;;;;;;;;;5115020;28;20032;-69
2021/08/14 10:24:55;;;;;;;10.68;5.25;;;;;;;;;;5115162;28;20027;-69
2021/08/14 10:27:22;;;;;;;5.40;4.47;;;;;;;;;;5115059;28;20024;-71
2021/08/14 10:29:48;;;;;;;13.48;4.65;;;;;;;;;;5115137;28;20071;-73
2021/08/14 10:32:34;;;;;;;6.40;4.82;;;;;;;;;;5114810;28;20035;-70
2021/08/14 10:35:17;;;;;;;9.02;4.70;;;;;;;;;;5097311;28;20091;-70
2021/08/14 10:37:43;;;;;;;10.73;4.82;;;;;;;;;;5114898;28;20041;-70
2021/08/14 10:40:10;;;;;;;10.55;4.60;;;;;;;;;;5115003;28;20031;-71
2021/08/14 10:42:56;;;;;;;7.63;4.75;;;;;;;;;;5114784;28;20051;-70
2021/08/14 10:45:32;;;;;;;10.38;5.40;;;;;;;;;;5115014;28;20066;-70
2021/08/14 10:48:03;;;;;;;9.20;4.80;;;;;;;;;;5114743;28;20122;-70
2021/08/14 10:50:32;;;;;;;7.63;4.60;;;;;;;;;;5114549;28;20042;-70
2021/08/14 10:53:10;;;;;;;7.85;4.70;;;;;;;;;;5114708;28;20089;-69
2021/08/14 10:55:37;;;;;;;18.42;5.00;;;;;;;;;;5114252;28;20047;-70
2021/08/14 10:58:24;;;;;;;8.63;5.03;;;;;;;;;;5114824;28;20066;-70
2021/08/14 11:00:54;;;;;;;9.20;4.60;;;;;;;;;;5114404;28;20031;-70
2021/08/14 11:03:40;;;;;;;8.23;4.75;;;;;;;;;;5114347;28;20070;-71
2021/08/14 11:06:25;;;;;;;12.38;4.88;;;;;;;;;;5114482;28;20040;-71
2021/08/14 11:09:10;;;;;;;25.35;6.03;;;;;;;;;;5114261;28;20039;-70
2021/08/14 11:11:37;;;;;;;7.60;4.50;;;;;;;;;;5114610;28;20392;-70
2021/08/14 11:14:07;;;;;;;11.38;4.78;;;;;;;;;;5114466;28;20043;-70
2021/08/14 11:16:51;;;;;;;14.13;4.88;;;;;;;;;;5114277;28;20075;-70
2021/08/14 11:19:37;;;;;;;5.60;3.78;;;;;;;;;;5114246;28;20493;-70
2021/08/14 11:22:22;;;;;;;8.38;3.70;;;;;;;;;;5114358;28;20043;-70
2021/08/14 11:24:48;;;;;;;11.48;3.30;;;;;;;;;;5114195;28;20031;-70
2021/08/14 11:27:21;;;;;;;6.00;2.97;;;;;;;;;;5114004;28;20036;-71
2021/08/14 11:29:47;;;;;;;9.63;3.50;;;;;;;;;;5113820;28;20035;-70
2021/08/14 11:32:13;;;;;;;8.35;3.60;;;;;;;;;;5113974;28;20042;-70
2021/08/14 11:34:41;;;;;;;6.65;3.42;;;;;;;;;;5113800;28;20044;-70
2021/08/14 11:37:09;;;;;;;10.18;3.70;;;;;;;;;;5113900;28;20049;-70
2021/08/14 11:39:35;;;;;;;10.52;3.10;;;;;;;;;;5113665;28;20110;-70
2021/08/14 11:42:01;;;;;;;9.27;3.72;;;;;;;;;;5113514;28;20516;-70
2021/08/14 11:44:28;;;;;;;7.10;3.42;;;;;;;;;;5113764;28;20556;-71
2021/08/14 11:47:03;;;;;;;5.90;2.97;;;;;;;;;;5113938;28;20034;-71
2021/08/14 11:49:30;;;;;;;3.78;3.20;;;;;;;;;;5113680;28;20038;-71
2021/08/14 11:52:02;;;;;;;5.70;3.72;;;;;;;;;;5113549;28;20036;-71
2021/08/14 11:54:30;;;;;;;7.82;3.42;;;;;;;;;;5113646;28;20093;-70
2021/08/14 11:57:08;;;;;;;7.50;3.60;;;;;;;;;;5114019;28;20038;-70
2021/08/14 11:59:34;;;;;;;11.15;3.95;;;;;;;;;;5113769;28;20067;-70
2021/08/14 12:02:00;;;;;;;7.95;3.40;;;;;;;;;;5117162;28;20048;-70
2021/08/14 12:04:26;;;;;;;5.05;3.47;;;;;;;;;;5117939;28;20031;-70
2021/08/14 12:06:56;;;;;;;5.30;3.17;;;;;;;;;;5117734;28;20471;-70
2021/08/14 12:09:22;;;;;;;5.85;3.08;;;;;;;;;;5118309;28;20036;-70
2021/08/14 18:13:04;;;;;;;19.35;5.70;;;;;;;;;;5111789;28;20136;-71
2021/08/14 18:15:30;;;;;;;12.57;5.30;;;;;;;;;;5115237;28;20146;-70
2021/08/14 18:17:56;;;;;;;7.65;4.88;;;;;;;;;;5115204;28;20036;-70
2021/08/14 18:20:22;;;;;;;9.63;5.72;;;;;;;;;;5115070;28;20023;-69
2021/08/14 18:22:48;;;;;;;9.85;5.32;;;;;;;;;;5115004;28;20036;-69
2021/08/14 18:25:14;;;;;;;6.68;5.20;;;;;;;;;;5115187;28;20031;-70
2021/08/14 18:27:40;;;;;;;8.32;5.10;;;;;;;;;;5114794;28;20460;-70
2021/08/14 18:30:07;;;;;;;10.15;5.00;;;;;;;;;;5114887;28;20522;-69
2021/08/14 18:32:33;;;;;;;9.90;4.95;;;;;;;;;;5115163;28;20024;-69
2021/08/14 18:34:59;;;;;;;12.00;5.60;;;;;;;;;;5114939;28;20069;-70
2021/08/14 18:37:25;;;;;;;7.05;5.45;;;;;;;;;;5114820;28;20039;-70
2021/08/14 18:39:51;;;;;;;10.30;5.70;;;;;;;;;;5114896;28;20032;-70
2021/08/14 18:42:17;;;;;;;8.50;5.85;;;;;;;;;;5114553;28;20031;-69
2021/08/14 18:44:43;;;;;;;9.88;6.50;;;;;;;;;;5114615;28;20130;-70
2021/08/14 18:47:10;;;;;;;25.13;9.00;;;;;;;;;;5114628;28;20118;-69
2021/08/14 18:49:36;;;;;;;22.60;9.70;;;;;;;;;;5113997;28;20034;-69
2021/08/14 18:52:02;;;;;;;14.27;8.57;;;;;;;;;;5114640;28;20036;-70
2021/08/14 18:54:28;;;;;;;17.92;8.20;;;;;;;;;;5114458;28;20043;-69
2021/08/14 18:56:54;;;;;;;13.73;7.50;;;;;;;;;;5114088;28;20526;-70
2021/08/14 18:59:20;;;;;;;20.48;7.97;;;;;;;;;;5114526;28;20039;-69
2021/08/14 19:01:47;;;;;;;18.27;9.15;;;;;;;;;;5114259;28;20032;-72
2021/08/14 19:04:13;;;;;;;19.35;7.53;;;;;;;;;;5114141;28;20023;-72
2021/08/14 19:06:39;;;;;;;15.13;7.88;;;;;;;;;;5114387;28;20046;-69
2021/08/14 19:09:05;;;;;;;20.45;9.48;;;;;;;;;;5095833;28;20445;-69
2021/08/14 19:11:31;;;;;;;18.95;8.43;;;;;;;;;;5112666;28;20495;-69
2021/08/14 19:13:58;;;;;;;10.88;7.30;;;;;;;;;;5114222;28;20450;-69
2021/08/14 19:16:24;;;;;;;13.80;7.65;;;;;;;;;;5114096;28;20395;-69
2021/08/14 19:18:50;;;;;;;13.65;7.63;;;;;;;;;;5113968;28;20392;-69
2021/08/14 19:21:16;;;;;;;12.18;6.70;;;;;;;;;;5113853;28;20039;-68
2021/08/14 19:23:42;;;;;;;19.33;8.32;;;;;;;;;;5114167;28;20110;-69
2021/08/14 19:26:08;;;;;;;27.38;11.15;;;;;;;;;;5113728;28;20036;-71
2021/08/14 19:28:34;;;;;;;13.00;7.85;;;;;;;;;;5114045;28;20054;-68
2021/08/14 19:31:00;;;;;;;17.98;8.18;;;;;;;;;;5113963;28;20036;-69
2021/08/14 19:33:26;;;;;;;10.05;6.72;;;;;;;;;;5114461;28;20114;-68
2021/08/14 19:35:52;;;;;;;10.27;6.57;;;;;;;;;;5113963;28;20119;-68
2021/08/14 19:38:18;;;;;;;9.80;6.30;;;;;;;;;;5113968;28;20028;-68
2021/08/14 19:40:44;;;;;;;9.95;6.40;;;;;;;;;;5113639;28;20032;-68
2021/08/14 19:43:11;;;;;;;10.65;5.97;;;;;;;;;;5113482;28;20499;-69
2021/08/14 19:45:38;;;;;;;12.13;6.57;;;;;;;;;;5113833;28;20032;-68
2021/08/14 19:48:04;;;;;;;10.00;5.72;;;;;;;;;;5114318;28;20444;-68
2021/08/14 19:50:30;;;;;;;9.55;6.15;;;;;;;;;;5113496;28;20472;-70
2021/08/14 19:52:56;;;;;;;9.25;6.13;;;;;;;;;;5113838;28;20042;-69
2021/08/14 19:55:22;;;;;;;12.15;6.00;;;;;;;;;;5113557;28;20039;-68
2021/08/14 19:57:48;;;;;;;9.55;5.75;;;;;;;;;;5113646;28;20147;-68
2021/08/14 20:00:15;;;;;;;11.73;7.05;;;;;;;;;;5113716;28;20034;-70
2021/08/14 20:02:41;;;;;;;9.20;6.63;;;;;;;;;;5113745;28;20040;-68
2021/08/14 20:05:07;;;;;;;8.02;6.05;;;;;;;;;;5113275;28;20035;-68
2021/08/14 20:07:33;;;;;;;9.40;6.47;;;;;;;;;;5113347;28;20417;-69
2021/08/14 20:10:00;;;;;;;13.10;6.13;;;;;;;;;;5113723;28;20372;-74
2021/08/14 20:12:27;;;;;;;12.02;6.18;;;;;;;;;;5113146;28;20036;-70
2021/08/14 20:14:53;;;;;;;10.48;6.38;;;;;;;;;;5113684;28;20051;-69
2021/08/14 20:17:19;;;;;;;14.38;7.32;;;;;;;;;;5113304;28;20115;-69
2021/08/14 20:19:45;;;;;;;14.98;8.00;;;;;;;;;;5113239;28;20036;-70
2021/08/14 20:22:11;;;;;;;14.52;8.00;;;;;;;;;;5115308;28;20024;-70
2021/08/14 20:24:37;;;;;;;14.40;8.32;;;;;;;;;;5117401;28;20526;-71
2021/08/14 20:27:03;;;;;;;14.07;8.48;;;;;;;;;;5117108;28;20035;-71
2021/08/14 20:29:30;;;;;;;16.50;8.57;;;;;;;;;;5117149;28;20053;-70
2021/08/14 20:31:56;;;;;;;15.13;7.82;;;;;;;;;;5117362;28;20055;-70
2021/08/14 20:34:22;;;;;;;15.68;8.10;;;;;;;;;;5116821;28;20051;-70
2021/08/14 20:36:49;;;;;;;15.32;7.50;;;;;;;;;;5116972;28;20055;-70